N23SM MUGM-MKJP
Flight info
| Callsign | N23SM |
|---|---|
| Flight time | 0h 42m |
| Altitude | 25000 |
| Route | ERICC6 ERICC DCT AVTEM DCT KEMBO ELSER6 |
| Aircraft | SF50/L-BDGRSWY/LB2U2 |
Departure
| Time | 2026-05-06 22:46 |
|---|---|
| Airport | Leeward Point Field (MUGM) |
Arrival
| Time | 2026-05-06 23:28 |
|---|---|
| Airport | Norman Manley International Airport (MKJP) |
| Time | Latitude | Longitude | Altitude | Speed | Heading |
|---|---|---|---|---|---|
| 2026-05-06 22:36 | 19.90899 | -75.21076 | 47 ft | 0 kts | 171° |
| 2026-05-06 22:38 | 19.90884 | -75.21056 | 47 ft | 10 kts | 91° |
| 2026-05-06 22:39 | 19.90885 | -75.20948 | 46 ft | 16 kts | 92° |
| 2026-05-06 22:39 | 19.90880 | -75.20886 | 46 ft | 1 kts | 104° |
| 2026-05-06 22:39 | 19.90879 | -75.20884 | 46 ft | 4 kts | 104° |
| 2026-05-06 22:39 | 19.90829 | -75.20825 | 46 ft | 15 kts | 165° |
| 2026-05-06 22:40 | 19.90796 | -75.20698 | 45 ft | 26 kts | 90° |
| 2026-05-06 22:40 | 19.90791 | -75.20487 | 44 ft | 31 kts | 91° |
| 2026-05-06 22:40 | 19.90786 | -75.20254 | 43 ft | 30 kts | 91° |
| 2026-05-06 22:40 | 19.90782 | -75.20050 | 42 ft | 25 kts | 91° |
| 2026-05-06 22:41 | 19.90777 | -75.19737 | 41 ft | 22 kts | 91° |
| 2026-05-06 22:41 | 19.90771 | -75.19595 | 40 ft | 14 kts | 110° |
| 2026-05-06 22:41 | 19.90719 | -75.19569 | 40 ft | 0 kts | 179° |
| 2026-05-06 22:45 | 19.90654 | -75.19577 | 41 ft | 12 kts | 213° |
| 2026-05-06 22:45 | 19.90640 | -75.19683 | 42 ft | 35 kts | 271° |
| 2026-05-06 22:45 | 19.90648 | -75.20181 | 43 ft | 99 kts | 271° |
| 2026-05-06 22:45 | 19.90705 | -75.20977 | 407 ft | 114 kts | 273° |
| 2026-05-06 22:46 | 19.90735 | -75.21875 | 780 ft | 135 kts | 266° |
| 2026-05-06 22:46 | 19.90453 | -75.22861 | 1291 ft | 142 kts | 227° |
| 2026-05-06 22:46 | 19.89571 | -75.23319 | 1836 ft | 155 kts | 182° |
| 2026-05-06 22:46 | 19.88419 | -75.23437 | 2233 ft | 180 kts | 192° |
| 2026-05-06 22:47 | 19.87200 | -75.24032 | 2557 ft | 205 kts | 207° |
| 2026-05-06 22:47 | 19.85912 | -75.24855 | 2873 ft | 229 kts | 210° |
| 2026-05-06 22:47 | 19.84464 | -75.25735 | 3115 ft | 257 kts | 208° |
| 2026-05-06 22:47 | 19.82840 | -75.26690 | 3516 ft | 271 kts | 207° |
| 2026-05-06 22:48 | 19.81193 | -75.27671 | 4161 ft | 273 kts | 208° |
| 2026-05-06 22:48 | 19.79526 | -75.28668 | 4674 ft | 276 kts | 208° |
| 2026-05-06 22:48 | 19.77838 | -75.29676 | 4927 ft | 280 kts | 208° |
| 2026-05-06 22:48 | 19.76141 | -75.30688 | 5145 ft | 280 kts | 208° |
| 2026-05-06 22:49 | 19.74448 | -75.31725 | 5259 ft | 281 kts | 212° |
| 2026-05-06 22:49 | 19.72918 | -75.33034 | 5285 ft | 283 kts | 219° |
| 2026-05-06 22:49 | 19.71399 | -75.34368 | 5368 ft | 283 kts | 218° |
| 2026-05-06 22:49 | 19.69865 | -75.35680 | 5450 ft | 283 kts | 218° |
| 2026-05-06 22:50 | 19.68336 | -75.37000 | 5519 ft | 283 kts | 218° |
| 2026-05-06 22:50 | 19.66810 | -75.38324 | 5583 ft | 284 kts | 218° |
| 2026-05-06 22:50 | 19.65279 | -75.39647 | 5639 ft | 284 kts | 218° |
| 2026-05-06 22:50 | 19.63755 | -75.40964 | 5818 ft | 279 kts | 218° |
| 2026-05-06 22:51 | 19.62278 | -75.42242 | 6180 ft | 270 kts | 218° |
| 2026-05-06 22:51 | 19.60836 | -75.43487 | 6540 ft | 265 kts | 218° |
| 2026-05-06 22:51 | 19.59418 | -75.44712 | 6881 ft | 261 kts | 218° |
| 2026-05-06 22:51 | 19.58016 | -75.45922 | 7231 ft | 259 kts | 218° |
| 2026-05-06 22:52 | 19.56627 | -75.47122 | 7584 ft | 256 kts | 218° |
| 2026-05-06 22:52 | 19.55254 | -75.48307 | 7939 ft | 254 kts | 218° |
| 2026-05-06 22:52 | 19.53892 | -75.49482 | 8302 ft | 251 kts | 218° |
| 2026-05-06 22:52 | 19.52546 | -75.50643 | 8664 ft | 248 kts | 218° |
| 2026-05-06 22:53 | 19.51214 | -75.51794 | 9032 ft | 246 kts | 218° |
| 2026-05-06 22:53 | 19.49889 | -75.52937 | 9405 ft | 245 kts | 218° |
| 2026-05-06 22:53 | 19.48575 | -75.54072 | 9782 ft | 243 kts | 218° |
| 2026-05-06 22:53 | 19.47264 | -75.55202 | 10135 ft | 242 kts | 218° |
| 2026-05-06 22:54 | 19.45958 | -75.56327 | 10479 ft | 242 kts | 218° |
| 2026-05-06 22:54 | 19.44657 | -75.57450 | 10824 ft | 241 kts | 218° |
| 2026-05-06 22:54 | 19.43359 | -75.58569 | 11173 ft | 240 kts | 218° |
| 2026-05-06 22:54 | 19.42062 | -75.59687 | 11528 ft | 240 kts | 219° |
| 2026-05-06 22:55 | 19.40767 | -75.60804 | 11886 ft | 240 kts | 219° |
| 2026-05-06 22:55 | 19.39473 | -75.61918 | 12248 ft | 240 kts | 219° |
| 2026-05-06 22:55 | 19.38182 | -75.63029 | 12654 ft | 237 kts | 219° |
| 2026-05-06 22:55 | 19.36913 | -75.64121 | 13146 ft | 233 kts | 220° |
| 2026-05-06 22:56 | 19.35669 | -75.65191 | 13645 ft | 228 kts | 220° |
| 2026-05-06 22:56 | 19.34447 | -75.66242 | 14113 ft | 224 kts | 220° |
| 2026-05-06 22:56 | 19.33247 | -75.67274 | 14558 ft | 220 kts | 220° |
| 2026-05-06 22:56 | 19.32085 | -75.68272 | 15007 ft | 216 kts | 220° |
| 2026-05-06 22:57 | 19.30932 | -75.69263 | 15473 ft | 211 kts | 221° |
| 2026-05-06 22:57 | 19.29806 | -75.70231 | 15933 ft | 205 kts | 221° |
| 2026-05-06 22:57 | 19.28713 | -75.71169 | 16405 ft | 199 kts | 221° |
| 2026-05-06 22:57 | 19.27657 | -75.72077 | 16882 ft | 192 kts | 222° |
| 2026-05-06 22:58 | 19.26640 | -75.72948 | 17364 ft | 184 kts | 222° |
| 2026-05-06 22:58 | 19.25667 | -75.73784 | 17851 ft | 176 kts | 223° |
| 2026-05-06 22:58 | 19.24735 | -75.74584 | 18338 ft | 168 kts | 223° |
| 2026-05-06 22:58 | 19.23849 | -75.75345 | 18755 ft | 160 kts | 224° |
| 2026-05-06 22:59 | 19.23011 | -75.76066 | 19165 ft | 151 kts | 224° |
| 2026-05-06 22:59 | 19.22227 | -75.76740 | 19577 ft | 140 kts | 225° |
| 2026-05-06 22:59 | 19.21505 | -75.77359 | 19971 ft | 128 kts | 225° |
| 2026-05-06 22:59 | 19.20799 | -75.77972 | 20169 ft | 134 kts | 225° |
| 2026-05-06 23:00 | 19.20058 | -75.78608 | 20372 ft | 140 kts | 224° |
| 2026-05-06 23:00 | 19.19291 | -75.79271 | 20581 ft | 145 kts | 225° |
| 2026-05-06 23:00 | 19.18488 | -75.79961 | 20789 ft | 152 kts | 224° |
| 2026-05-06 23:00 | 19.17654 | -75.80681 | 20987 ft | 160 kts | 224° |
| 2026-05-06 23:01 | 19.16735 | -75.81471 | 21001 ft | 181 kts | 224° |
| 2026-05-06 23:01 | 19.15706 | -75.82356 | 20999 ft | 200 kts | 223° |
| 2026-05-06 23:01 | 19.14570 | -75.83326 | 20994 ft | 219 kts | 223° |
| 2026-05-06 23:01 | 19.13338 | -75.84379 | 20991 ft | 236 kts | 222° |
| 2026-05-06 23:02 | 19.12017 | -75.85512 | 20992 ft | 252 kts | 222° |
| 2026-05-06 23:02 | 19.10615 | -75.86710 | 20995 ft | 265 kts | 222° |
| 2026-05-06 23:02 | 19.09151 | -75.87965 | 20995 ft | 276 kts | 222° |
| 2026-05-06 23:02 | 19.07642 | -75.89256 | 21027 ft | 283 kts | 221° |
| 2026-05-06 23:03 | 19.06098 | -75.90578 | 21032 ft | 289 kts | 222° |
| 2026-05-06 23:03 | 19.04526 | -75.91925 | 21036 ft | 294 kts | 221° |
| 2026-05-06 23:03 | 19.02923 | -75.93294 | 21039 ft | 297 kts | 221° |
| 2026-05-06 23:03 | 19.01309 | -75.94677 | 21040 ft | 300 kts | 221° |
| 2026-05-06 23:04 | 18.99678 | -75.96072 | 21040 ft | 302 kts | 221° |
| 2026-05-06 23:04 | 18.98039 | -75.97473 | 21040 ft | 304 kts | 221° |
| 2026-05-06 23:04 | 18.96392 | -75.98883 | 21040 ft | 305 kts | 221° |
| 2026-05-06 23:04 | 18.94741 | -76.00294 | 21040 ft | 306 kts | 221° |
| 2026-05-06 23:05 | 18.93082 | -76.01711 | 21038 ft | 307 kts | 221° |
| 2026-05-06 23:05 | 18.91446 | -76.03112 | 21036 ft | 307 kts | 221° |
| 2026-05-06 23:05 | 18.89760 | -76.04551 | 21037 ft | 308 kts | 221° |
| 2026-05-06 23:05 | 18.88117 | -76.05955 | 21037 ft | 308 kts | 221° |
| 2026-05-06 23:06 | 18.86451 | -76.07379 | 21029 ft | 308 kts | 221° |
| 2026-05-06 23:06 | 18.84889 | -76.08907 | 21018 ft | 305 kts | 232° |
| 2026-05-06 23:06 | 18.83591 | -76.10668 | 21018 ft | 304 kts | 235° |
| 2026-05-06 23:06 | 18.82269 | -76.12417 | 21020 ft | 305 kts | 234° |
| 2026-05-06 23:07 | 18.80940 | -76.14156 | 21021 ft | 305 kts | 234° |
| 2026-05-06 23:07 | 18.79621 | -76.15910 | 21020 ft | 305 kts | 234° |
| 2026-05-06 23:07 | 18.78303 | -76.17666 | 21019 ft | 305 kts | 234° |
| 2026-05-06 23:07 | 18.76979 | -76.19418 | 21020 ft | 305 kts | 234° |
| 2026-05-06 23:08 | 18.75655 | -76.21172 | 21018 ft | 305 kts | 234° |
| 2026-05-06 23:08 | 18.74332 | -76.22927 | 21018 ft | 305 kts | 234° |
| 2026-05-06 23:08 | 18.73009 | -76.24679 | 21015 ft | 306 kts | 234° |
| 2026-05-06 23:08 | 18.71684 | -76.26431 | 21015 ft | 306 kts | 234° |
| 2026-05-06 23:09 | 18.70359 | -76.28185 | 21013 ft | 306 kts | 234° |
| 2026-05-06 23:09 | 18.69034 | -76.29940 | 21013 ft | 306 kts | 234° |
| 2026-05-06 23:09 | 18.67708 | -76.31693 | 21013 ft | 306 kts | 234° |
| 2026-05-06 23:09 | 18.66382 | -76.33446 | 21013 ft | 306 kts | 234° |
| 2026-05-06 23:10 | 18.65056 | -76.35201 | 21016 ft | 306 kts | 234° |
| 2026-05-06 23:10 | 18.63729 | -76.36952 | 21013 ft | 306 kts | 234° |
| 2026-05-06 23:10 | 18.62850 | -76.38113 | 21013 ft | 306 kts | 234° |
| 2026-05-06 23:10 | 18.61523 | -76.39869 | 21005 ft | 306 kts | 234° |
| 2026-05-06 23:11 | 18.60198 | -76.41618 | 21005 ft | 306 kts | 234° |
| 2026-05-06 23:11 | 18.58864 | -76.43379 | 21004 ft | 307 kts | 234° |
| 2026-05-06 23:11 | 18.57536 | -76.45133 | 21005 ft | 307 kts | 234° |
| 2026-05-06 23:11 | 18.56203 | -76.46892 | 21005 ft | 307 kts | 234° |
| 2026-05-06 23:12 | 18.54876 | -76.48651 | 21006 ft | 306 kts | 236° |
| 2026-05-06 23:12 | 18.53831 | -76.50574 | 20998 ft | 301 kts | 250° |
| 2026-05-06 23:12 | 18.53078 | -76.52629 | 21002 ft | 301 kts | 252° |
| 2026-05-06 23:12 | 18.52311 | -76.54681 | 21003 ft | 301 kts | 251° |
| 2026-05-06 23:13 | 18.51534 | -76.56731 | 21001 ft | 301 kts | 252° |
| 2026-05-06 23:13 | 18.50765 | -76.58788 | 21001 ft | 302 kts | 252° |
| 2026-05-06 23:13 | 18.50000 | -76.60847 | 21001 ft | 302 kts | 252° |
| 2026-05-06 23:13 | 18.49230 | -76.62906 | 21001 ft | 302 kts | 251° |
| 2026-05-06 23:14 | 18.48457 | -76.64964 | 21003 ft | 302 kts | 252° |
| 2026-05-06 23:14 | 18.47686 | -76.67024 | 21003 ft | 302 kts | 252° |
| 2026-05-06 23:14 | 18.46914 | -76.69087 | 21002 ft | 303 kts | 252° |
| 2026-05-06 23:14 | 18.46143 | -76.71147 | 21003 ft | 303 kts | 251° |
| 2026-05-06 23:15 | 18.45376 | -76.73192 | 20848 ft | 308 kts | 251° |
| 2026-05-06 23:15 | 18.44578 | -76.75325 | 20473 ft | 319 kts | 251° |
| 2026-05-06 23:15 | 18.43752 | -76.77529 | 20049 ft | 328 kts | 251° |
| 2026-05-06 23:15 | 18.42904 | -76.79783 | 19609 ft | 333 kts | 250° |
| 2026-05-06 23:16 | 18.42048 | -76.82061 | 19168 ft | 335 kts | 251° |
| 2026-05-06 23:16 | 18.41193 | -76.84330 | 18723 ft | 333 kts | 251° |
| 2026-05-06 23:16 | 18.40347 | -76.86580 | 18278 ft | 330 kts | 251° |
| 2026-05-06 23:16 | 18.39510 | -76.88813 | 17811 ft | 325 kts | 250° |
| 2026-05-06 23:17 | 18.38681 | -76.91017 | 17384 ft | 323 kts | 250° |
| 2026-05-06 23:17 | 18.37857 | -76.93200 | 16963 ft | 319 kts | 250° |
| 2026-05-06 23:17 | 18.37041 | -76.95368 | 16540 ft | 319 kts | 250° |
| 2026-05-06 23:17 | 18.36229 | -76.97533 | 16126 ft | 316 kts | 250° |
| 2026-05-06 23:18 | 18.35417 | -76.99683 | 15711 ft | 316 kts | 250° |
| 2026-05-06 23:18 | 18.34608 | -77.01824 | 15294 ft | 314 kts | 249° |
| 2026-05-06 23:18 | 18.33805 | -77.03956 | 14882 ft | 313 kts | 250° |
| 2026-05-06 23:18 | 18.33008 | -77.06073 | 14471 ft | 313 kts | 249° |
| 2026-05-06 23:19 | 18.32200 | -77.08212 | 14063 ft | 313 kts | 249° |
| 2026-05-06 23:19 | 18.31398 | -77.10338 | 13635 ft | 313 kts | 249° |
| 2026-05-06 23:19 | 18.30597 | -77.12461 | 13210 ft | 312 kts | 249° |
| 2026-05-06 23:19 | 18.29797 | -77.14580 | 12795 ft | 311 kts | 248° |
| 2026-05-06 23:20 | 18.28997 | -77.16696 | 12386 ft | 311 kts | 248° |
| 2026-05-06 23:20 | 18.28140 | -77.18742 | 11985 ft | 309 kts | 240° |
| 2026-05-06 23:20 | 18.26764 | -77.20479 | 11558 ft | 306 kts | 218° |
| 2026-05-06 23:20 | 18.24881 | -77.21457 | 11147 ft | 302 kts | 193° |
| 2026-05-06 23:21 | 18.22812 | -77.21513 | 10753 ft | 298 kts | 169° |
| 2026-05-06 23:21 | 18.20942 | -77.20669 | 10368 ft | 291 kts | 146° |
| 2026-05-06 23:21 | 18.19326 | -77.19401 | 10030 ft | 289 kts | 141° |
| 2026-05-06 23:21 | 18.17737 | -77.18168 | 9658 ft | 282 kts | 144° |
| 2026-05-06 23:22 | 18.16099 | -77.17036 | 9273 ft | 281 kts | 146° |
| 2026-05-06 23:22 | 18.14447 | -77.15911 | 8900 ft | 284 kts | 146° |
| 2026-05-06 23:22 | 18.12816 | -77.14757 | 8519 ft | 282 kts | 144° |
| 2026-05-06 23:22 | 18.11188 | -77.13594 | 8165 ft | 283 kts | 144° |
| 2026-05-06 23:23 | 18.09567 | -77.12452 | 7817 ft | 279 kts | 144° |
| 2026-05-06 23:23 | 18.08093 | -77.11148 | 7460 ft | 276 kts | 130° |
| 2026-05-06 23:23 | 18.07035 | -77.09479 | 7090 ft | 276 kts | 118° |
| 2026-05-06 23:23 | 18.06124 | -77.07714 | 6776 ft | 273 kts | 115° |
| 2026-05-06 23:24 | 18.05335 | -77.05895 | 6468 ft | 274 kts | 112° |
| 2026-05-06 23:24 | 18.04584 | -77.04065 | 6128 ft | 271 kts | 112° |
| 2026-05-06 23:24 | 18.03802 | -77.02278 | 5775 ft | 270 kts | 113° |
| 2026-05-06 23:24 | 18.03004 | -77.00500 | 5429 ft | 265 kts | 112° |
| 2026-05-06 23:25 | 18.02240 | -76.98765 | 5109 ft | 261 kts | 112° |
| 2026-05-06 23:25 | 18.01482 | -76.97017 | 4766 ft | 264 kts | 113° |
| 2026-05-06 23:25 | 18.00721 | -76.95282 | 4421 ft | 259 kts | 113° |
| 2026-05-06 23:25 | 17.99936 | -76.93574 | 4114 ft | 260 kts | 115° |
| 2026-05-06 23:26 | 17.99174 | -76.91871 | 3788 ft | 259 kts | 113° |
| 2026-05-06 23:26 | 17.98444 | -76.90152 | 3498 ft | 253 kts | 112° |
| 2026-05-06 23:26 | 17.97702 | -76.88483 | 3182 ft | 245 kts | 114° |
| 2026-05-06 23:26 | 17.97010 | -76.86873 | 2837 ft | 233 kts | 112° |
| 2026-05-06 23:27 | 17.96384 | -76.85463 | 2341 ft | 199 kts | 115° |
| 2026-05-06 23:27 | 17.95781 | -76.84205 | 1694 ft | 185 kts | 116° |
| 2026-05-06 23:27 | 17.95243 | -76.83032 | 1064 ft | 175 kts | 115° |
| 2026-05-06 23:27 | 17.94797 | -76.81929 | 605 ft | 145 kts | 108° |
| 2026-05-06 23:28 | 17.94451 | -76.80976 | 320 ft | 146 kts | 113° |
| 2026-05-06 23:28 | 17.94072 | -76.80035 | 105 ft | 119 kts | 114° |
| 2026-05-06 23:28 | 17.93828 | -76.79418 | 16 ft | 68 kts | 114° |
| 2026-05-06 23:28 | 17.93685 | -76.79059 | 9 ft | 42 kts | 111° |
| 2026-05-06 23:29 | 17.93598 | -76.78828 | 8 ft | 24 kts | 111° |
| 2026-05-06 23:29 | 17.93557 | -76.78719 | 8 ft | 18 kts | 112° |
| 2026-05-06 23:29 | 17.93492 | -76.78550 | 8 ft | 32 kts | 112° |
| 2026-05-06 23:29 | 17.93414 | -76.78329 | 12 ft | 27 kts | 101° |
| 2026-05-06 23:30 | 17.93406 | -76.78163 | 13 ft | 19 kts | 85° |
| 2026-05-06 23:30 | 17.93422 | -76.78041 | 12 ft | 15 kts | 84° |
| 2026-05-06 23:30 | 17.93420 | -76.77954 | 13 ft | 10 kts | 111° |
| 2026-05-06 23:30 | 17.93380 | -76.77849 | 13 ft | 15 kts | 109° |
| 2026-05-06 23:31 | 17.93388 | -76.77768 | 13 ft | 10 kts | 21° |
| 2026-05-06 23:31 | 17.93487 | -76.77721 | 13 ft | 16 kts | 28° |
| 2026-05-06 23:31 | 17.93556 | -76.77652 | 13 ft | 12 kts | 55° |
| 2026-05-06 23:31 | 17.93604 | -76.77586 | 13 ft | 9 kts | 72° |
| 2026-05-06 23:32 | 17.93608 | -76.77541 | 13 ft | 5 kts | 125° |
| 2026-05-06 23:32 | 17.93591 | -76.77519 | 13 ft | 1 kts | 127° |